sensor_id;sensor_type;location;lat;lon;timestamp;P1;durP1;ratioP1;P2;durP2;ratioP2
56806;SDS011;42687;42.524;12.052;2023-06-01T00:01:40;8.85;;;4.35;;
56806;SDS011;42687;42.524;12.052;2023-06-01T00:04:07;7.13;;;5.07;;
56806;SDS011;42687;42.524;12.052;2023-06-01T00:06:33;9.02;;;6.07;;
56806;SDS011;42687;42.524;12.052;2023-06-01T00:08:59;7.53;;;5.22;;
56806;SDS011;42687;42.524;12.052;2023-06-01T00:11:26;7.00;;;4.88;;
56806;SDS011;42687;42.524;12.052;2023-06-01T00:13:51;6.57;;;4.45;;
56806;SDS011;42687;42.524;12.052;2023-06-01T00:16:17;6.53;;;4.35;;
56806;SDS011;42687;42.524;12.052;2023-06-01T00:18:43;7.35;;;5.47;;
56806;SDS011;42687;42.524;12.052;2023-06-01T00:21:10;7.35;;;4.55;;
56806;SDS011;42687;42.524;12.052;2023-06-01T00:23:36;10.73;;;4.70;;
56806;SDS011;42687;42.524;12.052;2023-06-01T00:26:06;11.02;;;3.95;;
56806;SDS011;42687;42.524;12.052;2023-06-01T00:28:33;8.15;;;4.88;;
56806;SDS011;42687;42.524;12.052;2023-06-01T00:31:00;8.13;;;4.22;;
56806;SDS011;42687;42.524;12.052;2023-06-01T00:33:26;7.85;;;6.07;;
56806;SDS011;42687;42.524;12.052;2023-06-01T00:35:51;6.65;;;4.30;;
56806;SDS011;42687;42.524;12.052;2023-06-01T00:38:17;7.80;;;5.80;;
56806;SDS011;42687;42.524;12.052;2023-06-01T00:40:43;9.05;;;5.28;;
56806;SDS011;42687;42.524;12.052;2023-06-01T00:43:09;5.70;;;4.30;;
56806;SDS011;42687;42.524;12.052;2023-06-01T00:45:35;8.07;;;4.97;;
56806;SDS011;42687;42.524;12.052;2023-06-01T00:48:05;6.20;;;4.25;;
56806;SDS011;42687;42.524;12.052;2023-06-01T00:50:31;8.02;;;4.60;;
56806;SDS011;42687;42.524;12.052;2023-06-01T00:52:58;7.78;;;3.90;;
56806;SDS011;42687;42.524;12.052;2023-06-01T00:55:25;8.38;;;4.95;;
56806;SDS011;42687;42.524;12.052;2023-06-01T00:57:52;6.45;;;4.07;;
56806;SDS011;42687;42.524;12.052;2023-06-01T01:00:19;8.85;;;5.10;;
56806;SDS011;42687;42.524;12.052;2023-06-01T01:02:45;8.75;;;5.78;;
56806;SDS011;42687;42.524;12.052;2023-06-01T01:05:14;12.88;;;6.45;;
56806;SDS011;42687;42.524;12.052;2023-06-01T01:15:58;7.65;;;5.88;;
56806;SDS011;42687;42.524;12.052;2023-06-01T01:21:19;7.63;;;5.75;;
56806;SDS011;42687;42.524;12.052;2023-06-01T01:27:04;7.30;;;3.53;;
56806;SDS011;42687;42.524;12.052;2023-06-01T01:29:40;7.03;;;4.78;;
56806;SDS011;42687;42.524;12.052;2023-06-01T01:32:07;7.05;;;4.35;;
56806;SDS011;42687;42.524;12.052;2023-06-01T01:34:34;5.53;;;3.50;;
56806;SDS011;42687;42.524;12.052;2023-06-01T01:37:01;8.93;;;5.55;;
56806;SDS011;42687;42.524;12.052;2023-06-01T01:39:27;7.60;;;5.05;;
56806;SDS011;42687;42.524;12.052;2023-06-01T01:41:52;7.35;;;4.40;;
56806;SDS011;42687;42.524;12.052;2023-06-01T01:44:18;6.05;;;4.00;;
56806;SDS011;42687;42.524;12.052;2023-06-01T01:49:26;8.27;;;4.20;;
56806;SDS011;42687;42.524;12.052;2023-06-01T01:54:46;6.03;;;4.20;;
56806;SDS011;42687;42.524;12.052;2023-06-01T01:57:14;6.85;;;3.80;;
56806;SDS011;42687;42.524;12.052;2023-06-01T01:59:42;4.90;;;3.13;;
56806;SDS011;42687;42.524;12.052;2023-06-01T02:02:11;9.25;;;3.65;;
56806;SDS011;42687;42.524;12.052;2023-06-01T02:04:40;8.90;;;3.75;;
56806;SDS011;42687;42.524;12.052;2023-06-01T02:07:07;8.13;;;3.85;;
56806;SDS011;42687;42.524;12.052;2023-06-01T02:09:33;7.13;;;4.80;;
56806;SDS011;42687;42.524;12.052;2023-06-01T02:11:59;5.30;;;3.55;;
56806;SDS011;42687;42.524;12.052;2023-06-01T02:14:24;7.35;;;3.92;;
56806;SDS011;42687;42.524;12.052;2023-06-01T02:16:50;5.97;;;3.35;;
56806;SDS011;42687;42.524;12.052;2023-06-01T02:19:16;7.30;;;4.60;;
56806;SDS011;42687;42.524;12.052;2023-06-01T02:21:42;5.85;;;3.28;;
56806;SDS011;42687;42.524;12.052;2023-06-01T02:24:08;6.78;;;3.83;;
56806;SDS011;42687;42.524;12.052;2023-06-01T02:26:35;7.65;;;4.75;;
56806;SDS011;42687;42.524;12.052;2023-06-01T02:29:01;7.38;;;3.72;;
56806;SDS011;42687;42.524;12.052;2023-06-01T02:31:39;7.10;;;3.97;;
56806;SDS011;42687;42.524;12.052;2023-06-01T02:34:05;6.10;;;3.85;;
56806;SDS011;42687;42.524;12.052;2023-06-01T02:36:31;7.85;;;4.35;;
56806;SDS011;42687;42.524;12.052;2023-06-01T02:38:57;6.47;;;4.68;;
56806;SDS011;42687;42.524;12.052;2023-06-01T02:41:23;7.10;;;4.00;;
56806;SDS011;42687;42.524;12.052;2023-06-01T02:43:50;5.82;;;3.70;;
56806;SDS011;42687;42.524;12.052;2023-06-01T02:46:17;4.82;;;3.08;;
56806;SDS011;42687;42.524;12.052;2023-06-01T02:48:44;6.90;;;4.68;;
56806;SDS011;42687;42.524;12.052;2023-06-01T02:51:11;6.35;;;4.10;;
56806;SDS011;42687;42.524;12.052;2023-06-01T02:53:40;7.90;;;4.63;;
56806;SDS011;42687;42.524;12.052;2023-06-01T02:56:06;7.00;;;4.55;;
56806;SDS011;42687;42.524;12.052;2023-06-01T02:58:32;7.35;;;5.65;;
56806;SDS011;42687;42.524;12.052;2023-06-01T03:00:58;7.60;;;4.40;;
56806;SDS011;42687;42.524;12.052;2023-06-01T03:03:24;5.32;;;3.25;;
56806;SDS011;42687;42.524;12.052;2023-06-01T03:05:50;6.38;;;4.13;;
56806;SDS011;42687;42.524;12.052;2023-06-01T03:08:16;10.75;;;4.82;;
56806;SDS011;42687;42.524;12.052;2023-06-01T03:10:43;7.22;;;4.35;;
56806;SDS011;42687;42.524;12.052;2023-06-01T03:13:09;5.85;;;3.80;;
56806;SDS011;42687;42.524;12.052;2023-06-01T03:15:34;7.00;;;5.15;;
56806;SDS011;42687;42.524;12.052;2023-06-01T03:18:03;7.50;;;4.63;;
56806;SDS011;42687;42.524;12.052;2023-06-01T03:20:30;6.00;;;3.55;;
56806;SDS011;42687;42.524;12.052;2023-06-01T03:22:57;6.05;;;3.60;;
56806;SDS011;42687;42.524;12.052;2023-06-01T03:25:22;6.13;;;3.35;;
56806;SDS011;42687;42.524;12.052;2023-06-01T03:27:50;7.03;;;4.35;;
56806;SDS011;42687;42.524;12.052;2023-06-01T03:30:15;7.82;;;4.05;;
56806;SDS011;42687;42.524;12.052;2023-06-01T03:32:41;7.47;;;4.60;;
56806;SDS011;42687;42.524;12.052;2023-06-01T03:35:09;8.68;;;4.55;;
56806;SDS011;42687;42.524;12.052;2023-06-01T03:37:37;6.25;;;5.03;;
56806;SDS011;42687;42.524;12.052;2023-06-01T03:40:05;9.15;;;4.78;;
56806;SDS011;42687;42.524;12.052;2023-06-01T03:42:39;11.18;;;4.07;;
56806;SDS011;42687;42.524;12.052;2023-06-01T03:45:07;7.45;;;4.72;;
56806;SDS011;42687;42.524;12.052;2023-06-01T03:47:34;6.43;;;3.90;;
56806;SDS011;42687;42.524;12.052;2023-06-01T03:50:00;7.18;;;4.75;;
56806;SDS011;42687;42.524;12.052;2023-06-01T03:52:27;8.20;;;4.30;;
56806;SDS011;42687;42.524;12.052;2023-06-01T03:54:57;12.68;;;5.15;;
56806;SDS011;42687;42.524;12.052;2023-06-01T03:57:25;7.40;;;4.57;;
56806;SDS011;42687;42.524;12.052;2023-06-01T03:59:51;6.80;;;3.55;;
56806;SDS011;42687;42.524;12.052;2023-06-01T04:02:17;6.22;;;4.03;;
56806;SDS011;42687;42.524;12.052;2023-06-01T04:04:48;8.30;;;4.38;;
56806;SDS011;42687;42.524;12.052;2023-06-01T04:07:14;9.50;;;4.93;;
56806;SDS011;42687;42.524;12.052;2023-06-01T04:09:44;8.88;;;4.80;;
56806;SDS011;42687;42.524;12.052;2023-06-01T04:12:12;11.90;;;5.75;;
56806;SDS011;42687;42.524;12.052;2023-06-01T04:14:39;9.68;;;4.65;;
56806;SDS011;42687;42.524;12.052;2023-06-01T04:17:05;7.57;;;4.38;;
56806;SDS011;42687;42.524;12.052;2023-06-01T04:19:31;7.00;;;3.67;;
56806;SDS011;42687;42.524;12.052;2023-06-01T04:22:00;8.18;;;4.13;;
56806;SDS011;42687;42.524;12.052;2023-06-01T04:24:26;6.38;;;3.08;;
56806;SDS011;42687;42.524;12.052;2023-06-01T04:26:52;5.93;;;3.75;;
56806;SDS011;42687;42.524;12.052;2023-06-01T04:29:18;8.40;;;4.47;;
56806;SDS011;42687;42.524;12.052;2023-06-01T04:31:47;7.15;;;3.80;;
56806;SDS011;42687;42.524;12.052;2023-06-01T04:34:13;8.15;;;3.03;;
56806;SDS011;42687;42.524;12.052;2023-06-01T04:36:39;7.90;;;4.50;;
56806;SDS011;42687;42.524;12.052;2023-06-01T04:39:05;10.48;;;5.32;;
56806;SDS011;42687;42.524;12.052;2023-06-01T04:41:32;10.38;;;4.82;;
56806;SDS011;42687;42.524;12.052;2023-06-01T04:44:00;13.02;;;7.40;;
56806;SDS011;42687;42.524;12.052;2023-06-01T04:46:26;6.70;;;3.55;;
56806;SDS011;42687;42.524;12.052;2023-06-01T04:48:52;15.93;;;4.40;;
56806;SDS011;42687;42.524;12.052;2023-06-01T04:51:18;7.20;;;4.30;;
56806;SDS011;42687;42.524;12.052;2023-06-01T04:53:45;10.82;;;4.38;;
56806;SDS011;42687;42.524;12.052;2023-06-01T04:56:21;10.75;;;6.43;;
56806;SDS011;42687;42.524;12.052;2023-06-01T04:58:54;9.20;;;4.15;;
56806;SDS011;42687;42.524;12.052;2023-06-01T05:01:21;7.68;;;4.97;;
56806;SDS011;42687;42.524;12.052;2023-06-01T05:03:50;5.85;;;4.05;;
56806;SDS011;42687;42.524;12.052;2023-06-01T05:06:19;5.85;;;3.33;;
56806;SDS011;42687;42.524;12.052;2023-06-01T05:08:46;8.55;;;4.95;;
56806;SDS011;42687;42.524;12.052;2023-06-01T05:11:13;6.45;;;3.25;;
56806;SDS011;42687;42.524;12.052;2023-06-01T05:13:39;5.82;;;3.13;;
56806;SDS011;42687;42.524;12.052;2023-06-01T05:16:07;8.18;;;5.10;;
56806;SDS011;42687;42.524;12.052;2023-06-01T05:18:34;5.82;;;3.65;;
56806;SDS011;42687;42.524;12.052;2023-06-01T05:21:01;7.47;;;3.70;;
56806;SDS011;42687;42.524;12.052;2023-06-01T05:23:27;7.13;;;5.35;;
56806;SDS011;42687;42.524;12.052;2023-06-01T05:25:54;10.23;;;7.32;;
56806;SDS011;42687;42.524;12.052;2023-06-01T05:28:28;5.10;;;3.15;;
56806;SDS011;42687;42.524;12.052;2023-06-01T05:30:55;7.70;;;5.63;;
56806;SDS011;42687;42.524;12.052;2023-06-01T05:33:21;6.57;;;4.13;;
56806;SDS011;42687;42.524;12.052;2023-06-01T05:35:47;6.78;;;4.30;;
56806;SDS011;42687;42.524;12.052;2023-06-01T05:38:12;6.13;;;4.00;;
56806;SDS011;42687;42.524;12.052;2023-06-01T05:40:38;7.55;;;4.43;;
56806;SDS011;42687;42.524;12.052;2023-06-01T05:43:03;3.65;;;2.42;;
56806;SDS011;42687;42.524;12.052;2023-06-01T05:45:29;5.47;;;3.33;;
56806;SDS011;42687;42.524;12.052;2023-06-01T05:47:55;5.70;;;4.70;;
56806;SDS011;42687;42.524;12.052;2023-06-01T05:50:21;4.32;;;3.05;;
56806;SDS011;42687;42.524;12.052;2023-06-01T05:52:46;5.00;;;3.55;;
56806;SDS011;42687;42.524;12.052;2023-06-01T05:55:12;7.97;;;5.03;;
56806;SDS011;42687;42.524;12.052;2023-06-01T05:57:38;10.38;;;5.88;;
56806;SDS011;42687;42.524;12.052;2023-06-01T06:00:03;7.07;;;4.72;;
56806;SDS011;42687;42.524;12.052;2023-06-01T06:02:35;7.70;;;3.78;;
56806;SDS011;42687;42.524;12.052;2023-06-01T06:05:00;8.15;;;5.78;;
56806;SDS011;42687;42.524;12.052;2023-06-01T06:07:29;6.88;;;4.53;;
56806;SDS011;42687;42.524;12.052;2023-06-01T06:09:54;7.78;;;3.20;;
56806;SDS011;42687;42.524;12.052;2023-06-01T06:12:20;3.67;;;2.45;;
56806;SDS011;42687;42.524;12.052;2023-06-01T06:14:46;6.30;;;3.97;;
56806;SDS011;42687;42.524;12.052;2023-06-01T06:17:14;13.48;;;5.57;;
56806;SDS011;42687;42.524;12.052;2023-06-01T06:19:40;6.35;;;4.22;;
56806;SDS011;42687;42.524;12.052;2023-06-01T06:22:08;8.93;;;5.80;;
56806;SDS011;42687;42.524;12.052;2023-06-01T06:24:34;7.50;;;4.75;;
56806;SDS011;42687;42.524;12.052;2023-06-01T06:27:00;7.25;;;4.45;;
56806;SDS011;42687;42.524;12.052;2023-06-01T06:29:27;7.00;;;4.78;;
56806;SDS011;42687;42.524;12.052;2023-06-01T06:31:53;10.65;;;3.97;;
56806;SDS011;42687;42.524;12.052;2023-06-01T06:34:18;8.55;;;4.07;;
56806;SDS011;42687;42.524;12.052;2023-06-01T06:36:44;5.05;;;3.50;;
56806;SDS011;42687;42.524;12.052;2023-06-01T06:39:10;5.28;;;3.17;;
56806;SDS011;42687;42.524;12.052;2023-06-01T06:41:36;4.30;;;2.75;;
56806;SDS011;42687;42.524;12.052;2023-06-01T06:44:01;4.05;;;2.83;;
56806;SDS011;42687;42.524;12.052;2023-06-01T06:46:27;3.85;;;2.47;;
56806;SDS011;42687;42.524;12.052;2023-06-01T06:48:52;5.45;;;3.47;;
56806;SDS011;42687;42.524;12.052;2023-06-01T06:51:19;2.70;;;1.90;;
56806;SDS011;42687;42.524;12.052;2023-06-01T06:53:45;3.70;;;2.75;;
56806;SDS011;42687;42.524;12.052;2023-06-01T06:56:10;3.05;;;2.20;;
56806;SDS011;42687;42.524;12.052;2023-06-01T06:58:36;3.75;;;2.95;;
56806;SDS011;42687;42.524;12.052;2023-06-01T07:01:02;4.18;;;2.97;;
56806;SDS011;42687;42.524;12.052;2023-06-01T07:03:30;9.23;;;4.32;;
56806;SDS011;42687;42.524;12.052;2023-06-01T07:05:57;5.53;;;3.17;;
56806;SDS011;42687;42.524;12.052;2023-06-01T07:08:23;5.60;;;3.22;;
56806;SDS011;42687;42.524;12.052;2023-06-01T07:10:48;4.18;;;2.25;;
56806;SDS011;42687;42.524;12.052;2023-06-01T07:13:14;5.57;;;2.70;;
56806;SDS011;42687;42.524;12.052;2023-06-01T07:15:40;4.32;;;2.55;;
56806;SDS011;42687;42.524;12.052;2023-06-01T07:18:06;3.20;;;2.17;;
56806;SDS011;42687;42.524;12.052;2023-06-01T07:20:32;5.38;;;2.47;;
56806;SDS011;42687;42.524;12.052;2023-06-01T07:22:58;4.18;;;2.83;;
56806;SDS011;42687;42.524;12.052;2023-06-01T07:25:24;2.55;;;2.05;;
56806;SDS011;42687;42.524;12.052;2023-06-01T07:27:50;4.38;;;3.17;;
56806;SDS011;42687;42.524;12.052;2023-06-01T07:30:16;6.80;;;4.00;;
56806;SDS011;42687;42.524;12.052;2023-06-01T07:32:42;7.03;;;3.03;;
56806;SDS011;42687;42.524;12.052;2023-06-01T07:35:08;5.65;;;3.35;;
56806;SDS011;42687;42.524;12.052;2023-06-01T07:37:34;4.68;;;2.53;;
56806;SDS011;42687;42.524;12.052;2023-06-01T07:40:00;6.05;;;3.00;;
56806;SDS011;42687;42.524;12.052;2023-06-01T07:42:26;3.92;;;3.05;;
56806;SDS011;42687;42.524;12.052;2023-06-01T07:44:52;3.17;;;2.47;;
56806;SDS011;42687;42.524;12.052;2023-06-01T07:47:18;4.93;;;2.85;;
56806;SDS011;42687;42.524;12.052;2023-06-01T07:49:44;3.33;;;2.63;;
56806;SDS011;42687;42.524;12.052;2023-06-01T07:52:09;3.95;;;2.53;;
56806;SDS011;42687;42.524;12.052;2023-06-01T07:54:35;3.67;;;2.67;;
56806;SDS011;42687;42.524;12.052;2023-06-01T07:57:04;3.55;;;2.25;;
56806;SDS011;42687;42.524;12.052;2023-06-01T07:59:33;3.35;;;3.00;;
56806;SDS011;42687;42.524;12.052;2023-06-01T08:01:58;4.93;;;3.15;;
56806;SDS011;42687;42.524;12.052;2023-06-01T08:04:25;5.43;;;2.78;;
56806;SDS011;42687;42.524;12.052;2023-06-01T08:06:52;5.50;;;3.22;;
56806;SDS011;42687;42.524;12.052;2023-06-01T08:09:21;4.35;;;2.85;;
56806;SDS011;42687;42.524;12.052;2023-06-01T08:11:49;4.43;;;2.58;;
56806;SDS011;42687;42.524;12.052;2023-06-01T08:14:16;3.17;;;2.00;;
56806;SDS011;42687;42.524;12.052;2023-06-01T08:16:44;6.07;;;3.50;;
56806;SDS011;42687;42.524;12.052;2023-06-01T08:19:10;4.93;;;3.03;;
56806;SDS011;42687;42.524;12.052;2023-06-01T08:21:36;4.63;;;2.80;;
56806;SDS011;42687;42.524;12.052;2023-06-01T08:24:02;4.20;;;2.72;;
56806;SDS011;42687;42.524;12.052;2023-06-01T08:26:28;5.35;;;2.33;;
56806;SDS011;42687;42.524;12.052;2023-06-01T08:28:58;11.93;;;4.38;;
56806;SDS011;42687;42.524;12.052;2023-06-01T08:31:24;7.38;;;3.75;;
56806;SDS011;42687;42.524;12.052;2023-06-01T08:33:51;3.03;;;2.35;;
56806;SDS011;42687;42.524;12.052;2023-06-01T08:36:18;5.20;;;3.53;;
56806;SDS011;42687;42.524;12.052;2023-06-01T08:38:45;3.65;;;3.03;;
56806;SDS011;42687;42.524;12.052;2023-06-01T08:41:23;2.78;;;1.92;;
56806;SDS011;42687;42.524;12.052;2023-06-01T08:44:02;7.93;;;3.97;;
56806;SDS011;42687;42.524;12.052;2023-06-01T08:46:32;4.20;;;2.85;;
56806;SDS011;42687;42.524;12.052;2023-06-01T08:48:59;2.90;;;2.63;;
56806;SDS011;42687;42.524;12.052;2023-06-01T08:51:26;4.05;;;2.78;;
56806;SDS011;42687;42.524;12.052;2023-06-01T08:53:55;4.03;;;2.65;;
56806;SDS011;42687;42.524;12.052;2023-06-01T08:56:23;5.00;;;2.97;;
56806;SDS011;42687;42.524;12.052;2023-06-01T08:58:49;3.00;;;2.38;;
56806;SDS011;42687;42.524;12.052;2023-06-01T09:01:19;2.55;;;1.63;;
56806;SDS011;42687;42.524;12.052;2023-06-01T09:03:49;4.37;;;3.13;;
56806;SDS011;42687;42.524;12.052;2023-06-01T09:06:17;5.85;;;3.90;;
56806;SDS011;42687;42.524;12.052;2023-06-01T09:08:46;4.07;;;2.80;;
56806;SDS011;42687;42.524;12.052;2023-06-01T09:11:12;3.95;;;2.42;;
56806;SDS011;42687;42.524;12.052;2023-06-01T09:13:39;5.13;;;3.35;;
56806;SDS011;42687;42.524;12.052;2023-06-01T09:16:06;6.80;;;3.47;;
56806;SDS011;42687;42.524;12.052;2023-06-01T09:18:32;5.85;;;3.33;;
56806;SDS011;42687;42.524;12.052;2023-06-01T09:21:11;3.85;;;2.55;;
56806;SDS011;42687;42.524;12.052;2023-06-01T09:23:38;3.72;;;3.00;;
56806;SDS011;42687;42.524;12.052;2023-06-01T09:26:04;4.38;;;3.58;;
56806;SDS011;42687;42.524;12.052;2023-06-01T09:31:35;3.53;;;3.00;;
56806;SDS011;42687;42.524;12.052;2023-06-01T09:34:09;5.55;;;3.13;;
56806;SDS011;42687;42.524;12.052;2023-06-01T09:36:37;8.53;;;3.40;;
56806;SDS011;42687;42.524;12.052;2023-06-01T09:39:04;3.35;;;2.65;;
56806;SDS011;42687;42.524;12.052;2023-06-01T09:41:50;3.58;;;2.60;;
56806;SDS011;42687;42.524;12.052;2023-06-01T09:44:29;4.72;;;3.13;;
56806;SDS011;42687;42.524;12.052;2023-06-01T09:46:57;4.95;;;3.28;;
56806;SDS011;42687;42.524;12.052;2023-06-01T09:49:25;5.30;;;3.35;;
56806;SDS011;42687;42.524;12.052;2023-06-01T09:52:07;5.05;;;2.70;;
56806;SDS011;42687;42.524;12.052;2023-06-01T09:57:25;5.07;;;2.50;;
56806;SDS011;42687;42.524;12.052;2023-06-01T09:59:54;3.45;;;2.78;;
56806;SDS011;42687;42.524;12.052;2023-06-01T10:02:20;4.15;;;2.88;;
56806;SDS011;42687;42.524;12.052;2023-06-01T10:04:50;3.33;;;2.13;;
56806;SDS011;42687;42.524;12.052;2023-06-01T10:07:25;8.57;;;4.60;;
56806;SDS011;42687;42.524;12.052;2023-06-01T10:09:56;4.25;;;3.03;;
56806;SDS011;42687;42.524;12.052;2023-06-01T10:12:24;4.27;;;3.13;;
56806;SDS011;42687;42.524;12.052;2023-06-01T10:14:51;5.35;;;3.47;;
56806;SDS011;42687;42.524;12.052;2023-06-01T10:17:21;7.80;;;4.00;;
56806;SDS011;42687;42.524;12.052;2023-06-01T10:19:47;2.65;;;2.40;;
56806;SDS011;42687;42.524;12.052;2023-06-01T10:22:13;6.20;;;3.83;;
56806;SDS011;42687;42.524;12.052;2023-06-01T10:24:41;7.63;;;4.85;;
56806;SDS011;42687;42.524;12.052;2023-06-01T10:29:49;3.53;;;2.40;;
56806;SDS011;42687;42.524;12.052;2023-06-01T10:40:39;5.70;;;3.88;;
56806;SDS011;42687;42.524;12.052;2023-06-01T10:43:06;4.40;;;2.75;;
56806;SDS011;42687;42.524;12.052;2023-06-01T10:48:11;5.30;;;3.47;;
56806;SDS011;42687;42.524;12.052;2023-06-01T10:50:38;8.70;;;5.07;;
56806;SDS011;42687;42.524;12.052;2023-06-01T11:01:35;4.75;;;2.95;;
56806;SDS011;42687;42.524;12.052;2023-06-01T11:04:11;4.55;;;2.78;;
56806;SDS011;42687;42.524;12.052;2023-06-01T11:06:39;4.53;;;3.15;;
56806;SDS011;42687;42.524;12.052;2023-06-01T11:09:06;5.68;;;3.95;;
56806;SDS011;42687;42.524;12.052;2023-06-01T11:14:14;6.95;;;4.63;;
56806;SDS011;42687;42.524;12.052;2023-06-01T11:16:41;4.72;;;3.53;;
56806;SDS011;42687;42.524;12.052;2023-06-01T11:19:07;3.45;;;2.35;;
56806;SDS011;42687;42.524;12.052;2023-06-01T11:24:09;7.43;;;5.07;;
56806;SDS011;42687;42.524;12.052;2023-06-01T11:26:41;5.93;;;3.40;;
56806;SDS011;42687;42.524;12.052;2023-06-01T11:29:19;5.83;;;3.80;;
56806;SDS011;42687;42.524;12.052;2023-06-01T11:31:48;5.15;;;2.92;;
56806;SDS011;42687;42.524;12.052;2023-06-01T11:34:16;6.80;;;4.32;;
56806;SDS011;42687;42.524;12.052;2023-06-01T11:36:46;5.70;;;3.90;;
56806;SDS011;42687;42.524;12.052;2023-06-01T11:39:21;5.18;;;3.53;;
56806;SDS011;42687;42.524;12.052;2023-06-01T11:41:50;6.80;;;5.05;;
56806;SDS011;42687;42.524;12.052;2023-06-01T11:44:17;6.70;;;4.13;;
56806;SDS011;42687;42.524;12.052;2023-06-01T11:46:50;7.32;;;4.63;;
56806;SDS011;42687;42.524;12.052;2023-06-01T11:49:21;6.22;;;3.75;;
56806;SDS011;42687;42.524;12.052;2023-06-01T11:51:47;6.13;;;4.55;;
56806;SDS011;42687;42.524;12.052;2023-06-01T11:54:13;8.05;;;5.38;;
56806;SDS011;42687;42.524;12.052;2023-06-01T11:56:39;7.47;;;5.05;;
56806;SDS011;42687;42.524;12.052;2023-06-01T11:59:06;8.30;;;4.35;;
56806;SDS011;42687;42.524;12.052;2023-06-01T12:01:41;5.70;;;4.18;;
56806;SDS011;42687;42.524;12.052;2023-06-01T12:04:14;9.05;;;5.47;;
56806;SDS011;42687;42.524;12.052;2023-06-01T12:06:42;5.78;;;3.90;;
56806;SDS011;42687;42.524;12.052;2023-06-01T12:09:08;7.78;;;5.05;;
56806;SDS011;42687;42.524;12.052;2023-06-01T12:11:35;7.28;;;5.03;;
56806;SDS011;42687;42.524;12.052;2023-06-01T12:14:03;6.65;;;4.35;;
56806;SDS011;42687;42.524;12.052;2023-06-01T12:19:30;5.85;;;4.03;;
56806;SDS011;42687;42.524;12.052;2023-06-01T12:21:57;5.35;;;3.60;;
56806;SDS011;42687;42.524;12.052;2023-06-01T12:24:27;7.50;;;4.47;;
56806;SDS011;42687;42.524;12.052;2023-06-01T12:27:01;7.32;;;5.75;;
56806;SDS011;42687;42.524;12.052;2023-06-01T12:29:34;8.60;;;6.35;;
56806;SDS011;42687;42.524;12.052;2023-06-01T12:32:04;7.10;;;5.68;;
56806;SDS011;42687;42.524;12.052;2023-06-01T12:34:31;5.95;;;4.38;;
56806;SDS011;42687;42.524;12.052;2023-06-01T12:36:56;6.13;;;4.55;;
56806;SDS011;42687;42.524;12.052;2023-06-01T12:39:32;8.95;;;6.55;;
56806;SDS011;42687;42.524;12.052;2023-06-01T12:42:02;6.80;;;4.50;;
56806;SDS011;42687;42.524;12.052;2023-06-01T12:44:30;7.43;;;5.68;;
56806;SDS011;42687;42.524;12.052;2023-06-01T12:46:58;9.02;;;5.60;;
56806;SDS011;42687;42.524;12.052;2023-06-01T12:49:25;7.70;;;6.50;;
56806;SDS011;42687;42.524;12.052;2023-06-01T12:51:53;6.22;;;5.00;;
56806;SDS011;42687;42.524;12.052;2023-06-01T12:54:18;6.47;;;5.10;;
56806;SDS011;42687;42.524;12.052;2023-06-01T12:56:47;7.55;;;5.13;;
56806;SDS011;42687;42.524;12.052;2023-06-01T12:59:13;8.73;;;5.68;;
56806;SDS011;42687;42.524;12.052;2023-06-01T13:01:39;5.97;;;4.93;;
56806;SDS011;42687;42.524;12.052;2023-06-01T13:04:05;8.07;;;4.55;;
56806;SDS011;42687;42.524;12.052;2023-06-01T13:06:32;6.65;;;3.95;;
56806;SDS011;42687;42.524;12.052;2023-06-01T13:08:59;6.22;;;5.30;;
56806;SDS011;42687;42.524;12.052;2023-06-01T13:11:26;8.57;;;6.13;;
56806;SDS011;42687;42.524;12.052;2023-06-01T13:13:52;12.88;;;4.78;;
56806;SDS011;42687;42.524;12.052;2023-06-01T13:16:19;6.70;;;4.93;;
56806;SDS011;42687;42.524;12.052;2023-06-01T13:18:46;7.75;;;6.32;;
56806;SDS011;42687;42.524;12.052;2023-06-01T13:21:15;7.72;;;5.22;;
56806;SDS011;42687;42.524;12.052;2023-06-01T13:23:41;7.43;;;5.45;;
56806;SDS011;42687;42.524;12.052;2023-06-01T13:26:07;6.45;;;5.38;;
56806;SDS011;42687;42.524;12.052;2023-06-01T13:28:34;7.68;;;5.15;;
56806;SDS011;42687;42.524;12.052;2023-06-01T13:31:00;12.00;;;7.22;;
56806;SDS011;42687;42.524;12.052;2023-06-01T13:33:26;8.07;;;5.50;;
56806;SDS011;42687;42.524;12.052;2023-06-01T13:35:52;9.07;;;6.72;;
56806;SDS011;42687;42.524;12.052;2023-06-01T13:38:18;8.60;;;6.05;;
56806;SDS011;42687;42.524;12.052;2023-06-01T13:40:44;8.50;;;6.03;;
56806;SDS011;42687;42.524;12.052;2023-06-01T13:43:10;12.02;;;6.95;;
56806;SDS011;42687;42.524;12.052;2023-06-01T13:45:36;7.45;;;6.50;;
56806;SDS011;42687;42.524;12.052;2023-06-01T13:48:01;8.38;;;6.18;;
56806;SDS011;42687;42.524;12.052;2023-06-01T13:50:27;8.77;;;6.13;;
56806;SDS011;42687;42.524;12.052;2023-06-01T13:52:53;10.55;;;6.97;;
56806;SDS011;42687;42.524;12.052;2023-06-01T13:55:19;8.93;;;5.63;;
56806;SDS011;42687;42.524;12.052;2023-06-01T13:57:45;8.50;;;6.07;;
56806;SDS011;42687;42.524;12.052;2023-06-01T14:00:11;9.13;;;6.22;;
56806;SDS011;42687;42.524;12.052;2023-06-01T14:02:37;7.28;;;5.82;;
56806;SDS011;42687;42.524;12.052;2023-06-01T14:05:03;10.77;;;7.22;;
56806;SDS011;42687;42.524;12.052;2023-06-01T14:07:30;11.55;;;8.57;;
56806;SDS011;42687;42.524;12.052;2023-06-01T14:09:56;9.13;;;7.07;;
56806;SDS011;42687;42.524;12.052;2023-06-01T14:12:22;7.25;;;4.90;;
56806;SDS011;42687;42.524;12.052;2023-06-01T14:14:48;8.60;;;6.22;;
56806;SDS011;42687;42.524;12.052;2023-06-01T14:17:14;7.70;;;6.03;;
56806;SDS011;42687;42.524;12.052;2023-06-01T14:19:39;7.97;;;5.50;;
56806;SDS011;42687;42.524;12.052;2023-06-01T14:22:05;10.15;;;6.90;;
56806;SDS011;42687;42.524;12.052;2023-06-01T14:24:31;9.48;;;7.43;;
56806;SDS011;42687;42.524;12.052;2023-06-01T14:26:57;13.73;;;6.47;;
56806;SDS011;42687;42.524;12.052;2023-06-01T14:29:22;11.05;;;7.82;;
56806;SDS011;42687;42.524;12.052;2023-06-01T14:31:48;8.02;;;5.68;;
56806;SDS011;42687;42.524;12.052;2023-06-01T14:34:14;7.75;;;5.30;;
56806;SDS011;42687;42.524;12.052;2023-06-01T14:36:40;8.05;;;5.30;;
56806;SDS011;42687;42.524;12.052;2023-06-01T14:39:06;8.02;;;5.63;;
56806;SDS011;42687;42.524;12.052;2023-06-01T14:41:32;8.10;;;5.68;;
56806;SDS011;42687;42.524;12.052;2023-06-01T14:43:58;8.70;;;5.22;;
56806;SDS011;42687;42.524;12.052;2023-06-01T14:46:23;6.30;;;5.45;;
56806;SDS011;42687;42.524;12.052;2023-06-01T14:48:49;9.27;;;7.20;;
56806;SDS011;42687;42.524;12.052;2023-06-01T14:51:15;8.40;;;7.15;;
56806;SDS011;42687;42.524;12.052;2023-06-01T14:53:40;8.10;;;5.43;;
56806;SDS011;42687;42.524;12.052;2023-06-01T14:56:06;7.10;;;5.93;;
56806;SDS011;42687;42.524;12.052;2023-06-01T14:58:32;8.07;;;5.45;;
56806;SDS011;42687;42.524;12.052;2023-06-01T15:00:58;6.70;;;5.13;;
56806;SDS011;42687;42.524;12.052;2023-06-01T15:03:24;8.07;;;5.72;;
56806;SDS011;42687;42.524;12.052;2023-06-01T15:05:49;6.70;;;5.43;;
56806;SDS011;42687;42.524;12.052;2023-06-01T15:08:16;7.32;;;5.25;;
56806;SDS011;42687;42.524;12.052;2023-06-01T15:10:47;7.22;;;5.75;;
56806;SDS011;42687;42.524;12.052;2023-06-01T15:13:12;6.70;;;5.22;;
56806;SDS011;42687;42.524;12.052;2023-06-01T15:15:41;5.43;;;4.82;;
56806;SDS011;42687;42.524;12.052;2023-06-01T15:18:07;8.43;;;4.72;;
56806;SDS011;42687;42.524;12.052;2023-06-01T15:20:33;7.82;;;5.68;;
56806;SDS011;42687;42.524;12.052;2023-06-01T15:22:58;11.18;;;5.18;;
56806;SDS011;42687;42.524;12.052;2023-06-01T15:25:24;8.23;;;6.57;;
56806;SDS011;42687;42.524;12.052;2023-06-01T15:27:50;6.60;;;4.93;;
56806;SDS011;42687;42.524;12.052;2023-06-01T15:30:16;6.30;;;4.57;;